Time;durP1;ratioP1;P1;durP2;ratioP2;P2;SDS_P1;SDS_P2;PMS_P1;PMS_P2;Temp;Humidity;BMP_temperature;BMP_pressure;BME280_temperature;BME280_humidity;BME280_pressure;Samples;Min_cycle;Max_cycle;Signal;HPM_P1;HPM_P2
2021/04/13 00:00:45;;;;;;;1.35;0.60;;;17.30;55.00;;;;;;10481137;28;20482;-60
2021/04/13 00:05:49;;;;;;;1.77;0.57;;;17.40;55.10;;;;;;10502735;28;20113;-60
2021/04/13 00:10:58;;;;;;;0.57;0.40;;;17.40;55.00;;;;;;10466883;28;20546;-59
2021/04/13 00:16:23;;;;;;;0.68;0.50;;;17.30;54.90;;;;;;10484902;28;20024;-59
2021/04/13 00:21:38;;;;;;;2.10;0.60;;;17.40;54.90;;;;;;10500806;28;20040;-59
2021/04/13 00:26:45;;;;;;;1.45;0.40;;;17.40;54.90;;;;;;10484663;28;20067;-59
2021/04/13 00:31:48;;;;;;;0.50;0.40;;;17.40;54.80;;;;;;10484867;28;20083;-59
2021/04/13 00:36:51;;;;;;;1.25;0.40;;;17.40;54.80;;;;;;10483202;28;20055;-59
2021/04/13 00:42:09;;;;;;;0.80;0.50;;;17.40;54.80;;;;;;10477004;28;20028;-60
2021/04/13 00:47:19;;;;;;;1.02;0.40;;;17.40;54.80;;;;;;10475066;28;20427;-59
2021/04/13 00:52:28;;;;;;;2.17;0.50;;;17.40;54.70;;;;;;10478740;28;20544;-59
2021/04/13 00:57:49;;;;;;;1.38;0.55;;;17.40;55.80;;;;;;10483568;28;20046;-59
2021/04/13 01:02:55;;;;;;;0.47;0.35;;;17.40;57.30;;;;;;10500530;28;20115;-59
2021/04/13 01:07:56;;;;;;;0.90;0.40;;;17.50;57.60;;;;;;10499912;28;20038;-59
2021/04/13 01:13:14;;;;;;;1.48;0.47;;;17.50;58.10;;;;;;10500080;28;20032;-59
2021/04/13 01:18:31;;;;;;;1.10;0.60;;;17.50;58.20;;;;;;10492909;28;20033;-59
2021/04/13 01:29:09;;;;;;;1.67;0.73;;;17.50;58.20;;;;;;10464732;28;20040;-60
2021/04/13 01:34:25;;;;;;;0.57;0.40;;;17.40;58.00;;;;;;10498688;28;20040;-59
2021/04/13 01:39:29;;;;;;;0.75;0.40;;;17.50;58.10;;;;;;10498602;28;20048;-59
2021/04/13 01:44:47;;;;;;;0.98;0.50;;;17.40;57.90;;;;;;10498560;28;20469;-59
2021/04/13 01:49:55;;;;;;;0.98;0.50;;;17.50;57.90;;;;;;10498654;28;20032;-59
2021/04/13 01:55:09;;;;;;;1.58;0.40;;;17.50;57.70;;;;;;10480406;28;20036;-59
2021/04/13 02:00:14;;;;;;;1.10;0.50;;;17.50;57.60;;;;;;10464224;28;20040;-60
2021/04/13 02:05:18;;;;;;;0.45;0.40;;;17.50;57.50;;;;;;10480407;28;20337;-59
2021/04/13 02:10:38;;;;;;;0.75;0.32;;;17.50;57.40;;;;;;10497605;28;20102;-59
2021/04/13 02:16:14;;;;;;;1.23;0.63;;;17.50;57.30;;;;;;10497641;28;20028;-59
2021/04/13 02:21:29;;;;;;;0.43;0.40;;;17.50;57.10;;;;;;10481526;28;20131;-60
2021/04/13 02:26:31;;;;;;;1.17;0.30;;;17.40;57.00;;;;;;10476604;28;20032;-59
2021/04/13 02:31:47;;;;;;;0.30;0.25;;;17.50;56.90;;;;;;10479503;28;20029;-59
2021/04/13 02:37:27;;;;;;;0.77;0.50;;;17.50;56.70;;;;;;10496740;28;20041;-59
2021/04/13 02:42:29;;;;;;;0.52;0.40;;;17.50;56.60;;;;;;10493359;28;20385;-59
2021/04/13 02:47:36;;;;;;;1.02;0.30;;;17.50;56.60;;;;;;10471961;28;20029;-60
2021/04/13 02:52:42;;;;;;;0.65;0.30;;;17.40;56.50;;;;;;10480196;28;20063;-60
2021/04/13 02:57:45;;;;;;;1.48;0.55;;;17.40;56.50;;;;;;10461087;28;20021;-60
2021/04/13 03:02:56;;;;;;;0.32;0.30;;;17.40;56.50;;;;;;10496542;28;20044;-60
2021/04/13 03:08:02;;;;;;;1.83;0.40;;;17.40;56.30;;;;;;10496634;28;20361;-59
2021/04/13 03:13:15;;;;;;;1.42;0.47;;;17.50;56.20;;;;;;10471663;28;20033;-59
2021/04/13 03:18:20;;;;;;;0.65;0.43;;;17.50;56.10;;;;;;10496175;28;20060;-60
2021/04/13 03:23:26;;;;;;;1.13;0.35;;;17.50;56.10;;;;;;10478708;28;20035;-60
2021/04/13 03:28:33;;;;;;;1.35;0.30;;;17.50;56.00;;;;;;10497110;28;20028;-60
2021/04/13 03:33:37;;;;;;;0.73;0.30;;;17.50;55.90;;;;;;10486527;28;20398;-60
2021/04/13 03:38:39;;;;;;;0.70;0.50;;;17.40;55.90;;;;;;10485199;28;20047;-59
2021/04/13 03:43:40;;;;;;;0.70;0.47;;;17.50;56.50;;;;;;10485906;28;20036;-59
2021/04/13 03:48:47;;;;;;;0.75;0.40;;;17.40;55.70;;;;;;10485089;28;20368;-60
2021/04/13 03:53:48;;;;;;;0.75;0.55;;;17.50;55.60;;;;;;10485774;28;20025;-59
2021/04/13 03:58:59;;;;;;;1.17;0.40;;;17.50;55.60;;;;;;10502496;28;20111;-59
2021/04/13 04:04:05;;;;;;;0.40;0.30;;;17.50;55.60;;;;;;10502517;28;20384;-60
2021/04/13 04:09:37;;;;;;;0.30;0.20;;;17.50;55.50;;;;;;10502591;28;20118;-59
2021/04/13 04:14:37;;;;;;;0.40;0.30;;;17.50;55.50;;;;;;10494714;28;20562;-59
2021/04/13 04:19:38;;;;;;;1.67;0.38;;;17.50;55.40;;;;;;10484421;28;20036;-62
2021/04/13 04:24:42;;;;;;;0.30;0.30;;;17.50;55.40;;;;;;10501754;28;20044;-63
2021/04/13 04:30:07;;;;;;;2.05;0.40;;;17.50;55.40;;;;;;10483493;28;20031;-63
2021/04/13 04:35:11;;;;;;;1.55;0.50;;;17.50;55.40;;;;;;10484593;28;20068;-63
2021/04/13 04:40:27;;;;;;;0.65;0.32;;;17.40;55.30;;;;;;10497927;28;20091;-63
2021/04/13 04:45:43;;;;;;;0.40;0.30;;;17.50;55.30;;;;;;10500028;28;20407;-63
2021/04/13 04:50:46;;;;;;;1.85;0.32;;;17.50;55.20;;;;;;10500276;28;20062;-63
2021/04/13 04:55:52;;;;;;;1.17;0.30;;;17.50;55.10;;;;;;10500485;28;20025;-63
2021/04/13 05:00:54;;;;;;;1.85;0.38;;;17.50;54.90;;;;;;10498411;28;20044;-61
2021/04/13 05:05:57;;;;;;;1.10;0.50;;;17.50;55.10;;;;;;10499693;28;20028;-61
2021/04/13 05:10:58;;;;;;;5.10;0.40;;;17.50;55.30;;;;;;10499146;28;20040;-61
2021/04/13 05:15:59;;;;;;;4.25;0.63;;;17.50;56.10;;;;;;10499242;28;20154;-62
2021/04/13 05:21:00;;;;;;;3.45;0.85;;;17.50;57.20;;;;;;10498700;28;20040;-63
2021/04/13 05:26:02;;;;;;;2.50;0.57;;;17.50;57.20;;;;;;10497705;28;20029;-63
2021/04/13 05:31:04;;;;;;;5.22;0.70;;;17.50;57.20;;;;;;10498503;28;20424;-63
2021/04/13 05:36:05;;;;;;;7.65;1.05;;;17.50;57.60;;;;;;10498653;28;20025;-61
2021/04/13 05:41:07;;;;;;;9.27;1.13;;;17.60;57.90;;;;;;10498398;28;20051;-63
2021/04/13 05:46:19;;;;;;;17.80;1.50;;;17.60;57.90;;;;;;10481167;28;20429;-62
2021/04/13 05:51:20;;;;;;;5.38;1.23;;;17.60;57.60;;;;;;10480433;28;20033;-62
2021/04/13 05:56:37;;;;;;;8.32;0.85;;;17.60;57.30;;;;;;10479918;28;20064;-59
2021/04/13 06:01:40;;;;;;;6.65;1.10;;;17.50;57.00;;;;;;10497975;28;20098;-63
2021/04/13 06:06:41;;;;;;;4.55;0.70;;;17.50;56.20;;;;;;10474523;28;20028;-61
2021/04/13 06:11:43;;;;;;;6.95;1.00;;;17.50;56.10;;;;;;10497976;28;20037;-62
2021/04/13 06:16:47;;;;;;;7.13;0.77;;;17.60;55.70;;;;;;10475740;28;20025;-61
2021/04/13 06:21:50;;;;;;;4.75;0.80;;;17.60;55.70;;;;;;10491315;28;20021;-61
2021/04/13 06:26:51;;;;;;;5.82;1.15;;;17.60;55.50;;;;;;10497095;28;20016;-62
2021/04/13 06:31:52;;;;;;;5.88;0.98;;;17.50;55.40;;;;;;10496693;28;20045;-61
2021/04/13 06:36:53;;;;;;;3.85;0.80;;;17.60;55.30;;;;;;10492984;28;20397;-61
2021/04/13 06:42:11;;;;;;;2.28;0.88;;;17.60;55.60;;;;;;10469108;28;20036;-60
2021/04/13 06:47:36;;;;;;;3.67;0.55;;;17.50;56.00;;;;;;10472756;28;20086;-60
2021/04/13 06:53:14;;;;;;;7.25;0.70;;;17.60;55.90;;;;;;10495403;28;20036;-60
2021/04/13 06:59:01;;;;;;;4.30;0.77;;;17.60;56.20;;;;;;10489622;28;20554;-61
2021/04/13 07:04:20;;;;;;;3.50;0.60;;;17.50;56.30;;;;;;10467617;28;20052;-60
2021/04/13 07:09:27;;;;;;;1.58;0.57;;;17.50;56.40;;;;;;10504379;28;20033;-59
2021/04/13 07:15:07;;;;;;;2.17;0.65;;;17.50;56.20;;;;;;10480667;28;20119;-60
2021/04/13 07:20:17;;;;;;;1.95;0.63;;;17.50;56.20;;;;;;10485605;28;20400;-59
2021/04/13 07:25:25;;;;;;;4.07;0.77;;;17.50;56.40;;;;;;10485497;28;20027;-57
2021/04/13 07:31:16;;;;;;;2.38;0.70;;;17.50;56.30;;;;;;10484464;28;20025;-60
2021/04/13 07:36:25;;;;;;;3.97;0.50;;;17.50;56.40;;;;;;10497544;28;20049;-60
2021/04/13 07:41:46;;;;;;;2.33;0.60;;;17.40;56.40;;;;;;10503252;28;20380;-59
2021/04/13 07:47:16;;;;;;;1.35;0.60;;;17.50;56.30;;;;;;10485585;28;20060;-59
2021/04/13 07:52:23;;;;;;;5.78;0.77;;;17.50;56.40;;;;;;10498423;28;20051;-60
2021/04/13 07:57:40;;;;;;;2.40;0.55;;;17.40;56.20;;;;;;10501874;28;20033;-63
2021/04/13 08:02:46;;;;;;;1.38;0.68;;;17.40;56.10;;;;;;10480210;28;20106;-61
2021/04/13 08:08:08;;;;;;;3.13;0.70;;;17.40;55.90;;;;;;10482988;28;20028;-60
2021/04/13 08:13:27;;;;;;;1.45;0.47;;;17.40;55.60;;;;;;10482896;28;20460;-60
2021/04/13 08:18:35;;;;;;;1.07;0.50;;;17.40;55.60;;;;;;10498765;28;20112;-61
2021/04/13 08:23:37;;;;;;;1.38;0.40;;;17.40;55.60;;;;;;10500078;28;20119;-60
2021/04/13 08:28:37;;;;;;;1.42;0.50;;;17.40;55.80;;;;;;10501014;28;20039;-61
2021/04/13 08:33:48;;;;;;;2.28;0.50;;;17.30;55.80;;;;;;10491178;28;20025;-61
2021/04/13 08:39:17;;;;;;;1.58;0.40;;;17.30;56.00;;;;;;10493268;28;20431;-62
2021/04/13 08:44:34;;;;;;;1.87;0.67;;;17.30;56.00;;;;;;10500961;28;20031;-60
2021/04/13 08:49:38;;;;;;;1.75;0.50;;;17.30;56.30;;;;;;10482436;28;20033;-61
2021/04/13 08:54:42;;;;;;;0.68;0.30;;;17.30;56.20;;;;;;10500010;28;20032;-61
2021/04/13 08:59:56;;;;;;;1.15;0.57;;;17.20;56.70;;;;;;10482768;28;20033;-60
2021/04/13 09:05:21;;;;;;;0.77;0.40;;;17.20;56.90;;;;;;10482416;28;20040;-61
2021/04/13 09:10:38;;;;;;;1.75;0.40;;;17.20;56.90;;;;;;10479776;28;20037;-60
2021/04/13 09:16:06;;;;;;;1.98;0.52;;;17.20;56.80;;;;;;10481424;28;20468;-60
2021/04/13 09:21:23;;;;;;;2.88;0.70;;;17.20;57.00;;;;;;10499426;28;20478;-61
2021/04/13 09:26:50;;;;;;;0.38;0.30;;;17.20;57.00;;;;;;10498203;28;20334;-61
2021/04/13 09:31:51;;;;;;;2.55;0.47;;;17.10;57.10;;;;;;10463212;28;20128;-61
2021/04/13 09:37:10;;;;;;;2.55;0.32;;;17.10;57.10;;;;;;10498183;28;20127;-61
2021/04/13 09:42:52;;;;;;;1.03;0.70;;;17.10;57.20;;;;;;10498521;28;20515;-61
2021/04/13 09:48:14;;;;;;;0.45;0.20;;;17.10;57.20;;;;;;10497158;28;20796;-60
2021/04/13 09:53:24;;;;;;;0.40;0.20;;;17.10;57.00;;;;;;10497036;28;20044;-61
2021/04/13 09:59:01;;;;;;;0.57;0.30;;;17.10;56.90;;;;;;10479227;28;20132;-61
2021/04/13 10:04:28;;;;;;;2.10;0.43;;;17.10;57.20;;;;;;10492721;28;20048;-61
2021/04/13 10:09:42;;;;;;;1.55;0.50;;;17.00;57.20;;;;;;10474794;28;20025;-61
2021/04/13 10:15:36;;;;;;;1.75;0.35;;;17.10;57.30;;;;;;10497559;28;20086;-61
2021/04/13 10:21:14;;;;;;;1.20;0.30;;;17.10;57.20;;;;;;10483282;28;20032;-61
2021/04/13 10:26:45;;;;;;;0.90;0.40;;;17.00;57.10;;;;;;10495938;28;20036;-61
2021/04/13 10:32:33;;;;;;;0.32;0.20;;;17.00;57.30;;;;;;10496135;28;20461;-61
2021/04/13 10:37:52;;;;;;;1.25;0.40;;;17.10;57.20;;;;;;10495151;28;20063;-60
2021/04/13 10:43:42;;;;;;;0.80;0.55;;;17.10;57.20;;;;;;10476745;28;20056;-60
2021/04/13 10:49:36;;;;;;;0.82;0.43;;;17.10;57.20;;;;;;10497299;28;20040;-62
2021/04/13 10:55:09;;;;;;;0.60;0.40;;;17.10;57.80;;;;;;10495372;28;20035;-61
2021/04/13 11:00:53;;;;;;;0.45;0.40;;;17.20;57.30;;;;;;10477624;28;20061;-62
2021/04/13 11:06:28;;;;;;;1.10;0.40;;;17.20;57.20;;;;;;10495097;28;20032;-61
2021/04/13 11:12:25;;;;;;;0.73;0.30;;;17.20;57.20;;;;;;10495016;28;20025;-61
2021/04/13 11:18:08;;;;;;;1.30;0.20;;;17.20;57.30;;;;;;10495022;28;20103;-61
2021/04/13 11:23:24;;;;;;;0.90;0.30;;;17.20;57.20;;;;;;10471062;28;20035;-61
2021/04/13 11:28:43;;;;;;;1.30;0.32;;;17.30;57.10;;;;;;10474378;28;20028;-61
2021/04/13 11:34:16;;;;;;;3.90;0.32;;;17.20;57.00;;;;;;10493840;28;20037;-61
2021/04/13 11:39:40;;;;;;;1.23;0.45;;;17.10;57.20;;;;;;10494317;28;20113;-61
2021/04/13 11:44:59;;;;;;;0.80;0.38;;;17.10;57.20;;;;;;10494462;28;20048;-61
2021/04/13 11:50:08;;;;;;;1.40;0.30;;;17.10;57.30;;;;;;10474206;28;20068;-61
2021/04/13 11:55:39;;;;;;;2.67;0.30;;;17.10;57.40;;;;;;10476859;28;20032;-62
2021/04/13 12:00:41;;;;;;;0.50;0.30;;;17.00;57.70;;;;;;10501281;28;20036;-61
2021/04/13 12:05:49;;;;;;;1.55;0.50;;;17.00;57.40;;;;;;10502377;28;20025;-61
2021/04/13 12:10:52;;;;;;;0.82;0.30;;;17.00;57.50;;;;;;10501081;28;20036;-60
2021/04/13 12:15:57;;;;;;;3.58;0.90;;;17.00;57.30;;;;;;10484307;28;20373;-61
2021/04/13 12:20:57;;;;;;;2.22;0.40;;;17.00;57.30;;;;;;10462753;28;20062;-60
2021/04/13 12:25:58;;;;;;;3.13;0.55;;;17.00;57.20;;;;;;10500724;28;20436;-62
2021/04/13 12:31:04;;;;;;;1.27;0.40;;;17.00;57.40;;;;;;10501107;28;20427;-61
2021/04/13 12:36:08;;;;;;;4.32;0.63;;;17.00;57.50;;;;;;10493426;28;20029;-61
2021/04/13 12:41:28;;;;;;;4.55;0.50;;;17.00;57.50;;;;;;10500018;28;20131;-61
2021/04/13 12:46:32;;;;;;;4.85;1.08;;;17.00;57.70;;;;;;10499798;28;20032;-62
2021/04/13 12:51:48;;;;;;;4.22;0.60;;;17.00;57.40;;;;;;10500089;28;20154;-63
2021/04/13 12:56:56;;;;;;;2.85;0.70;;;17.00;57.30;;;;;;10500145;28;20099;-63
2021/04/13 13:01:57;;;;;;;2.83;0.43;;;16.90;57.20;;;;;;10481956;28;20032;-62
2021/04/13 13:06:58;;;;;;;3.45;0.77;;;16.90;57.20;;;;;;10482160;28;20035;-62
2021/04/13 13:12:25;;;;;;;4.50;0.40;;;16.90;57.20;;;;;;10497135;28;20025;-63
2021/04/13 13:17:39;;;;;;;6.47;0.85;;;16.90;57.00;;;;;;10481136;28;20037;-62
2021/04/13 13:22:50;;;;;;;5.53;0.82;;;16.90;56.60;;;;;;10497284;28;20036;-63
2021/04/13 13:28:02;;;;;;;4.10;0.75;;;16.90;56.00;;;;;;10498897;28;20028;-61
2021/04/13 13:33:03;;;;;;;5.40;1.40;;;16.90;56.10;;;;;;10475614;28;20109;-61
2021/04/13 13:38:05;;;;;;;3.17;0.50;;;17.00;56.40;;;;;;10497832;28;20036;-62
2021/04/13 13:43:26;;;;;;;6.38;1.50;;;17.00;56.20;;;;;;10479923;28;20103;-62
2021/04/13 13:48:27;;;;;;;14.23;1.98;;;17.00;56.50;;;;;;10469252;28;20036;-61
2021/04/13 13:53:29;;;;;;;12.10;1.65;;;17.00;56.80;;;;;;10497655;28;20032;-61
2021/04/13 13:58:34;;;;;;;13.45;1.67;;;17.10;57.10;;;;;;10486633;28;20037;-62
2021/04/13 14:03:44;;;;;;;12.05;2.10;;;17.10;56.90;;;;;;10497675;28;20461;-61
2021/04/13 14:08:51;;;;;;;11.20;2.38;;;17.10;56.80;;;;;;10497070;28;20040;-61
2021/04/13 14:13:58;;;;;;;11.15;1.63;;;17.20;56.80;;;;;;10495498;28;20036;-56
2021/04/13 14:18:59;;;;;;;13.52;1.85;;;17.20;56.70;;;;;;10496620;28;20039;-60
2021/04/13 14:24:26;;;;;;;13.40;2.67;;;17.10;55.90;;;;;;10475865;28;20036;-61
2021/04/13 14:29:27;;;;;;;4.43;1.75;;;17.10;55.40;;;;;;10486540;28;20484;-60
2021/04/13 14:34:31;;;;;;;8.75;1.70;;;17.20;55.00;;;;;;10496413;28;20029;-61
2021/04/13 14:39:52;;;;;;;9.23;2.00;;;17.20;55.20;;;;;;10477868;28;20048;-63
2021/04/13 14:44:55;;;;;;;8.57;2.00;;;17.20;55.30;;;;;;10494997;28;20043;-63
2021/04/13 14:50:06;;;;;;;6.00;1.00;;;17.10;55.40;;;;;;10478439;28;20033;-63
2021/04/13 14:55:09;;;;;;;4.57;1.50;;;17.10;55.40;;;;;;10495503;28;20033;-62
2021/04/13 15:00:14;;;;;;;4.70;1.25;;;17.10;55.60;;;;;;10493777;28;20032;-63
2021/04/13 15:05:16;;;;;;;4.95;1.02;;;17.00;55.80;;;;;;10476718;28;20523;-62
2021/04/13 15:10:22;;;;;;;7.32;1.73;;;17.00;55.90;;;;;;10494485;28;20033;-62
2021/04/13 15:15:23;;;;;;;6.82;2.15;;;17.00;55.90;;;;;;10493337;28;20036;-63
2021/04/13 15:20:24;;;;;;;4.18;1.10;;;17.00;56.00;;;;;;10492235;28;20024;-62
2021/04/13 15:25:26;;;;;;;6.65;1.10;;;17.00;56.10;;;;;;10494662;28;20492;-62
2021/04/13 15:30:30;;;;;;;6.22;1.40;;;16.90;56.10;;;;;;10473570;28;20036;-62
2021/04/13 15:35:59;;;;;;;4.38;1.45;;;16.90;56.10;;;;;;10502140;28;20033;-67
2021/04/13 15:41:13;;;;;;;5.80;1.40;;;16.90;56.00;;;;;;10482113;28;20056;-63
2021/04/13 15:46:22;;;;;;;5.50;1.45;;;16.90;55.90;;;;;;10502169;28;20032;-63
2021/04/13 15:51:25;;;;;;;3.78;0.73;;;17.00;55.80;;;;;;10475212;28;20087;-63
2021/04/13 15:56:26;;;;;;;10.45;5.72;;;16.90;55.30;;;;;;10477651;28;20029;-61
2021/04/13 16:01:27;;;;;;;10.15;5.00;;;17.00;53.20;;;;;;10484462;28;20032;-61
2021/04/13 16:06:28;;;;;;;9.20;4.35;;;16.90;50.10;;;;;;10478092;28;20115;-61
2021/04/13 16:11:28;;;;;;;11.80;3.72;;;17.00;50.30;;;;;;10502311;28;20032;-61
2021/04/13 16:16:29;;;;;;;10.73;3.65;;;17.10;49.70;;;;;;10478152;28;20028;-63
2021/04/13 16:21:32;;;;;;;11.15;3.58;;;17.20;50.60;;;;;;10502067;28;20147;-62
2021/04/13 16:26:47;;;;;;;8.30;3.13;;;17.20;51.60;;;;;;10472728;28;20069;-62
2021/04/13 16:31:59;;;;;;;9.65;3.80;;;17.30;52.20;;;;;;10483355;28;20495;-61
2021/04/13 16:37:13;;;;;;;13.80;3.25;;;17.30;52.50;;;;;;10482626;28;20067;-62
2021/04/13 16:42:27;;;;;;;12.48;3.67;;;17.30;52.00;;;;;;10501233;28;20086;-62
2021/04/13 16:47:28;;;;;;;7.13;2.38;;;17.30;51.90;;;;;;10476135;28;20119;-62
2021/04/13 16:52:37;;;;;;;7.25;2.42;;;17.30;52.20;;;;;;10500229;28;20024;-61
2021/04/13 16:57:39;;;;;;;7.80;3.43;;;17.30;52.40;;;;;;10497649;28;20029;-62
2021/04/13 17:03:16;;;;;;;8.68;3.03;;;17.30;52.80;;;;;;10495297;28;20037;-62
2021/04/13 17:08:52;;;;;;;4.60;1.73;;;17.20;52.80;;;;;;10498896;28;20119;-61
2021/04/13 17:14:12;;;;;;;4.68;2.10;;;17.20;53.10;;;;;;10485302;28;20431;-60
2021/04/13 17:19:21;;;;;;;5.28;1.80;;;17.20;53.30;;;;;;10496833;28;20395;-61
2021/04/13 17:24:42;;;;;;;7.47;2.40;;;17.20;53.30;;;;;;10477111;28;20058;-61
2021/04/13 17:30:23;;;;;;;5.18;1.95;;;17.10;53.40;;;;;;10477268;28;20499;-61
2021/04/13 17:35:25;;;;;;;10.55;1.88;;;17.10;53.20;;;;;;10430022;28;20145;-61
2021/04/13 17:40:33;;;;;;;7.40;2.20;;;17.20;53.40;;;;;;10478440;28;20052;-60
2021/04/13 17:45:33;;;;;;;7.13;2.00;;;17.10;54.00;;;;;;10464014;28;20113;-60
2021/04/13 17:50:39;;;;;;;6.60;2.28;;;17.10;53.90;;;;;;10497695;28;20481;-59
2021/04/13 17:55:49;;;;;;;7.80;2.28;;;17.10;54.40;;;;;;10468093;28;20048;-59
2021/04/13 18:00:55;;;;;;;7.78;1.20;;;17.10;54.80;;;;;;10490918;28;20454;-59
2021/04/13 18:06:01;;;;;;;4.65;1.67;;;17.10;54.60;;;;;;10493100;28;20025;-59
2021/04/13 18:11:08;;;;;;;11.02;2.63;;;17.20;55.20;;;;;;10468339;28;20024;-58
2021/04/13 18:16:31;;;;;;;5.88;1.70;;;17.20;55.20;;;;;;10474838;28;20395;-58
2021/04/13 18:21:38;;;;;;;5.97;1.90;;;17.20;55.90;;;;;;10475066;28;20032;-59
2021/04/13 18:26:42;;;;;;;3.70;1.83;;;17.20;55.80;;;;;;10469575;28;20043;-58
2021/04/13 18:32:05;;;;;;;10.13;2.30;;;17.20;55.80;;;;;;10477280;28;20071;-58
2021/04/13 18:37:39;;;;;;;3.72;1.90;;;17.20;55.90;;;;;;10495589;28;20033;-58
2021/04/13 18:42:45;;;;;;;2.28;1.30;;;17.20;56.00;;;;;;10487409;28;20040;-59
2021/04/13 18:48:12;;;;;;;3.15;1.27;;;17.30;56.10;;;;;;10479351;28;20037;-58
2021/04/13 18:53:29;;;;;;;2.60;1.20;;;17.30;56.10;;;;;;10479442;28;20037;-58
2021/04/13 18:58:47;;;;;;;3.95;1.40;;;17.30;56.00;;;;;;10462768;28;20051;-58
2021/04/13 19:03:49;;;;;;;7.18;2.10;;;17.30;55.70;;;;;;10486680;28;20036;-57
2021/04/13 19:08:57;;;;;;;3.33;1.30;;;17.30;55.60;;;;;;10476915;28;20442;-59
2021/04/13 19:14:04;;;;;;;4.38;1.40;;;17.30;55.90;;;;;;10484538;28;20544;-61
2021/04/13 19:19:17;;;;;;;5.57;1.17;;;17.30;55.70;;;;;;10481309;28;20033;-61
2021/04/13 19:24:29;;;;;;;3.85;1.02;;;17.30;55.50;;;;;;10463426;28;20111;-61
2021/04/13 19:29:54;;;;;;;3.83;1.13;;;17.30;55.50;;;;;;10503981;28;20473;-61
2021/04/13 19:35:19;;;;;;;4.47;1.67;;;17.40;55.50;;;;;;10504164;28;20047;-60
2021/04/13 19:40:23;;;;;;;2.00;0.70;;;17.40;55.40;;;;;;10485911;28;20101;-61
2021/04/13 19:45:38;;;;;;;2.22;1.13;;;17.40;55.30;;;;;;10503482;28;20032;-61
2021/04/13 19:50:58;;;;;;;2.50;0.93;;;17.40;55.20;;;;;;10503436;28;20024;-61
2021/04/13 19:55:59;;;;;;;3.15;1.33;;;17.40;55.10;;;;;;10468969;28;20107;-61
2021/04/13 20:01:01;;;;;;;4.85;1.15;;;17.40;55.10;;;;;;10485012;28;20515;-61
2021/04/13 20:06:09;;;;;;;2.45;0.95;;;17.40;55.00;;;;;;10484970;28;20028;-61
2021/04/13 20:11:38;;;;;;;1.75;0.85;;;17.40;55.00;;;;;;10484767;28;20028;-60
2021/04/13 20:16:48;;;;;;;1.90;0.93;;;17.40;55.00;;;;;;10502033;28;20068;-60
2021/04/13 20:21:51;;;;;;;1.42;0.60;;;17.50;54.90;;;;;;10481597;28;20040;-61
2021/04/13 20:26:56;;;;;;;3.22;1.15;;;17.40;54.90;;;;;;10484465;28;20032;-61
2021/04/13 20:32:26;;;;;;;2.85;1.00;;;17.50;54.90;;;;;;10481860;28;20036;-61
2021/04/13 20:42:58;;;;;;;2.92;0.77;;;17.50;54.80;;;;;;10501898;28;20404;-61
2021/04/13 20:48:10;;;;;;;2.42;0.60;;;17.50;54.80;;;;;;10483641;28;20103;-61
2021/04/13 20:53:23;;;;;;;1.20;0.70;;;17.50;54.80;;;;;;10483917;28;20107;-61
2021/04/13 20:58:36;;;;;;;2.72;0.98;;;17.50;54.70;;;;;;10471551;28;20051;-61
2021/04/13 21:03:52;;;;;;;1.80;0.63;;;17.50;54.70;;;;;;10500507;28;20128;-61
2021/04/13 21:09:08;;;;;;;2.30;0.70;;;17.50;54.60;;;;;;10474542;28;20039;-61
2021/04/13 21:14:10;;;;;;;2.92;1.23;;;17.50;54.70;;;;;;10483083;28;20043;-61
2021/04/13 21:19:15;;;;;;;1.88;0.73;;;17.50;54.70;;;;;;10481587;28;20542;-61
2021/04/13 21:24:28;;;;;;;2.38;0.70;;;17.40;54.60;;;;;;10468279;28;20040;-61
2021/04/13 21:29:31;;;;;;;2.60;0.70;;;17.50;54.60;;;;;;10481471;28;20109;-61
2021/04/13 21:34:53;;;;;;;1.58;0.55;;;17.50;54.60;;;;;;10481755;28;20029;-61
2021/04/13 21:39:58;;;;;;;2.10;0.60;;;17.50;54.60;;;;;;10498424;28;20447;-61
2021/04/13 21:45:11;;;;;;;2.30;0.60;;;17.50;54.60;;;;;;10481686;28;20138;-61
2021/04/13 21:50:25;;;;;;;1.45;0.70;;;17.50;54.50;;;;;;10480273;28;20033;-62
2021/04/13 21:55:30;;;;;;;1.63;0.77;;;17.50;54.50;;;;;;10481359;28;20488;-62
2021/04/13 22:00:50;;;;;;;2.20;0.70;;;17.40;54.40;;;;;;10498774;28;20048;-61
2021/04/13 22:06:03;;;;;;;1.48;0.60;;;17.50;54.50;;;;;;10480193;28;20032;-61
2021/04/13 22:11:07;;;;;;;3.28;0.70;;;17.40;54.40;;;;;;10477753;28;20434;-61
2021/04/13 22:16:16;;;;;;;2.00;0.57;;;17.50;54.40;;;;;;10497753;28;20035;-61
2021/04/13 22:21:28;;;;;;;1.57;0.87;;;17.50;54.40;;;;;;10480060;28;20044;-61
2021/04/13 22:27:11;;;;;;;2.42;0.80;;;17.50;54.40;;;;;;10480049;28;20286;-61
2021/04/13 22:32:36;;;;;;;1.55;0.50;;;17.50;54.40;;;;;;10497097;28;20556;-61
2021/04/13 22:37:59;;;;;;;1.27;0.50;;;17.40;54.40;;;;;;10481293;28;20044;-61
2021/04/13 22:43:00;;;;;;;1.75;0.60;;;17.40;54.40;;;;;;10476366;28;20564;-61
2021/04/13 22:48:02;;;;;;;1.10;0.65;;;17.40;54.40;;;;;;10467530;28;20039;-61
2021/04/13 22:53:18;;;;;;;1.00;0.40;;;17.50;54.30;;;;;;10479174;28;20107;-61
2021/04/13 22:58:33;;;;;;;0.90;0.57;;;17.50;54.20;;;;;;10468341;28;20136;-62
2021/04/13 23:03:40;;;;;;;0.90;0.55;;;17.50;54.20;;;;;;10495501;28;20037;-61
2021/04/13 23:08:41;;;;;;;0.60;0.40;;;17.50;54.20;;;;;;10496855;28;20111;-61
2021/04/13 23:13:41;;;;;;;0.60;0.35;;;17.50;54.20;;;;;;10496600;28;20404;-62
2021/04/13 23:18:42;;;;;;;1.25;0.40;;;17.50;54.10;;;;;;10496513;28;20029;-61
2021/04/13 23:23:43;;;;;;;0.50;0.40;;;17.50;54.10;;;;;;10496283;28;20484;-62
2021/04/13 23:28:44;;;;;;;0.95;0.50;;;17.50;54.10;;;;;;10496269;28;20407;-61
2021/04/13 23:33:45;;;;;;;0.93;0.40;;;17.50;54.00;;;;;;10477986;28;20041;-61
2021/04/13 23:38:46;;;;;;;0.70;0.40;;;17.50;54.00;;;;;;10467156;28;20076;-61
2021/04/13 23:43:50;;;;;;;1.55;0.40;;;17.50;54.00;;;;;;10477914;28;20063;-61
2021/04/13 23:48:50;;;;;;;1.23;0.47;;;17.50;54.00;;;;;;10484448;28;20028;-61
2021/04/13 23:53:52;;;;;;;0.80;0.40;;;17.50;54.00;;;;;;10484680;28;20552;-61
2021/04/13 23:58:52;;;;;;;0.50;0.40;;;17.40;53.90;;;;;;10502870;28;20032;-61
